Time;durP1;ratioP1;P1;durP2;ratioP2;P2;SDS_P1;SDS_P2;PMS_P1;PMS_P2;Temp;Humidity;BMP_temperature;BMP_pressure;BME280_temperature;BME280_humidity;BME280_pressure;Samples;Min_cycle;Max_cycle;Signal;HPM_P1;HPM_P2
2022/12/15 00:40:28;;;;;;;0.80;0.80;;;-2.60;99.90;;;;;;5044470;28;20068;-73
2022/12/15 00:42:57;;;;;;;0.75;0.75;;;-2.70;99.90;;;;;;5043696;28;20049;-72
2022/12/15 00:46:53;;;;;;;0.70;0.70;;;-2.70;99.90;;;;;;5042932;28;20102;-72
2022/12/15 00:48:09;;;;;;;1.15;1.10;;;-2.80;99.90;;;;;;5027340;28;21840;-72
2022/12/15 00:50:53;;;;;;;;;;;-2.80;99.90;;;;;;5046491;28;20044;-72
2022/12/15 01:20:57;;;;;;;0.80;0.80;;;-2.70;99.90;;;;;;5040145;28;20087;-71
2022/12/15 01:23:23;;;;;;;0.80;0.80;;;-2.60;99.90;;;;;;5041337;28;20110;-72
2022/12/15 01:25:58;;;;;;;0.90;0.90;;;-2.60;99.90;;;;;;5041707;28;20045;-71
2022/12/15 01:28:25;;;;;;;0.70;0.70;;;-2.70;99.90;;;;;;5043811;28;20458;-72
2022/12/15 01:30:53;;;;;;;0.70;0.70;;;-2.70;99.90;;;;;;5042623;28;20032;-72
2022/12/15 01:33:19;;;;;;;0.70;0.70;;;-2.80;99.90;;;;;;5024242;28;20049;-71
2022/12/15 01:35:53;;;;;;;0.80;0.80;;;-2.80;99.90;;;;;;5040815;28;20103;-71
2022/12/15 01:38:19;;;;;;;0.70;0.70;;;-2.90;99.90;;;;;;5037608;28;20040;-72
2022/12/15 01:40:50;;;;;;;0.88;0.88;;;-2.90;99.90;;;;;;5042494;28;20051;-72
2022/12/15 01:43:22;;;;;;;0.70;0.70;;;-2.90;99.90;;;;;;5039280;28;20149;-72
2022/12/15 01:45:53;;;;;;;0.70;0.70;;;-2.80;99.90;;;;;;5039454;28;20064;-72
2022/12/15 01:48:45;;;;;;;0.88;0.88;;;-2.70;99.90;;;;;;5042738;28;21732;-73
2022/12/15 01:51:22;;;;;;;0.90;0.90;;;-2.70;99.90;;;;;;5043391;28;20040;-73
2022/12/15 01:54:03;;;;;;;15.18;2.70;;;-2.70;99.90;;;;;;5053910;28;20364;-72
2022/12/15 01:56:37;;;;;;;0.90;0.90;;;-2.60;99.90;;;;;;5041190;28;20059;-72
2022/12/15 01:59:06;;;;;;;0.60;0.60;;;-2.60;99.90;;;;;;5038327;28;20220;-72
2022/12/15 02:01:32;;;;;;;0.70;0.70;;;-2.50;99.90;;;;;;5044151;28;22447;-72
2022/12/15 02:03:57;;;;;;;0.80;0.80;;;-2.60;99.90;;;;;;5039095;28;20055;-71
2022/12/15 02:06:24;;;;;;;;;;;-2.50;99.90;;;;;;5039491;28;20049;-72
2022/12/15 02:08:54;;;;;;;0.90;0.90;;;-2.50;99.90;;;;;;5039464;28;19955;-73
2022/12/15 02:11:46;;;;;;;0.60;0.60;;;-2.50;99.90;;;;;;5039394;28;20106;-73
2022/12/15 02:14:37;;;;;;;0.80;0.80;;;-2.40;99.90;;;;;;5041216;28;20127;-73
2022/12/15 02:17:38;;;;;;;0.90;0.90;;;-2.30;99.90;;;;;;5053237;28;20102;-72
2022/12/15 02:20:22;;;;;;;1.30;1.25;;;-2.30;99.90;;;;;;5039546;28;20048;-71
2022/12/15 02:23:04;;;;;;;0.93;0.93;;;-2.30;99.90;;;;;;5041939;28;20049;-71
2022/12/15 02:25:38;;;;;;;0.77;0.77;;;-2.30;99.90;;;;;;5040720;28;20045;-72
2022/12/15 02:28:15;;;;;;;0.75;0.75;;;-2.30;99.90;;;;;;5044182;28;20049;-71
2022/12/15 02:34:51;;;;;;;0.90;0.90;;;-2.30;99.90;;;;;;5055952;28;20036;-72
2022/12/15 02:37:44;;;;;;;0.90;0.90;;;-2.20;99.90;;;;;;5040882;28;20055;-71
2022/12/15 02:40:10;;;;;;;0.98;0.98;;;-2.20;99.90;;;;;;5056216;28;20045;-72
2022/12/15 02:42:42;;;;;;;0.70;0.70;;;-2.10;99.90;;;;;;5054823;28;20049;-72
2022/12/15 02:45:19;;;;;;;0.95;0.95;;;-2.00;99.90;;;;;;5040308;28;20032;-72
2022/12/15 02:47:45;;;;;;;0.70;0.70;;;-1.80;99.90;;;;;;5039447;28;20049;-72
2022/12/15 02:50:20;;;;;;;2.55;2.35;;;-1.80;99.90;;;;;;5041743;28;20044;-71
2022/12/15 02:53:24;;;;;;;0.82;0.82;;;-1.70;99.90;;;;;;5038301;28;20489;-71
2022/12/15 02:56:17;;;;;;;0.70;0.70;;;-1.80;99.90;;;;;;5057881;28;22011;-71
2022/12/15 02:59:06;;;;;;;0.95;0.95;;;-2.00;99.90;;;;;;5049107;28;20056;-72
2022/12/15 03:01:39;;;;;;;0.80;0.80;;;-2.20;99.90;;;;;;5044000;28;20066;-72
2022/12/15 03:04:08;;;;;;;0.73;0.73;;;-2.50;99.90;;;;;;5044695;28;20036;-71
2022/12/15 03:06:34;;;;;;;0.80;0.80;;;-2.70;99.90;;;;;;5050072;28;20053;-72
2022/12/15 03:09:00;;;;;;;2.55;2.45;;;-2.80;99.90;;;;;;5030701;28;20051;-71
2022/12/15 03:11:27;;;;;;;0.85;0.85;;;-2.90;99.90;;;;;;5045751;28;20056;-70
2022/12/15 03:13:55;;;;;;;0.88;0.88;;;-3.00;99.90;;;;;;5047347;28;20054;-71
2022/12/15 03:16:26;;;;;;;0.90;0.90;;;-3.10;99.90;;;;;;5043436;28;20953;-72
2022/12/15 03:18:54;;;;;;;0.70;0.70;;;-3.20;99.90;;;;;;5044572;28;20052;-72
2022/12/15 03:21:20;;;;;;;1.85;1.75;;;-3.30;99.90;;;;;;5044081;28;20060;-72
2022/12/15 03:23:45;;;;;;;0.90;0.90;;;-3.30;99.90;;;;;;5027584;28;20036;-72
2022/12/15 03:26:12;;;;;;;;;;;-3.30;99.90;;;;;;5037161;28;20048;-72
2022/12/15 03:28:38;;;;;;;1.15;1.10;;;-3.30;99.90;;;;;;5046813;28;21834;-73
2022/12/15 03:31:06;;;;;;;0.88;0.88;;;-3.30;99.90;;;;;;5046383;28;20163;-73
2022/12/15 03:33:32;;;;;;;;;;;-3.20;99.90;;;;;;5055014;28;20048;-72
2022/12/15 03:36:02;;;;;;;0.90;0.90;;;-3.00;99.90;;;;;;5045392;28;19924;-72
2022/12/15 03:38:28;;;;;;;0.90;0.90;;;-2.80;99.90;;;;;;5045871;28;20567;-72
2022/12/15 03:40:54;;;;;;;0.80;0.80;;;-2.50;99.90;;;;;;5026406;28;20033;-72
2022/12/15 03:43:25;;;;;;;0.80;0.80;;;-2.40;99.90;;;;;;5044706;28;20051;-72
2022/12/15 03:45:52;;;;;;;0.95;0.95;;;-2.30;99.90;;;;;;5056280;28;20044;-72
2022/12/15 03:48:19;;;;;;;0.90;0.90;;;-2.30;99.90;;;;;;5045996;28;20040;-71
2022/12/15 03:50:48;;;;;;;0.80;0.80;;;-2.40;99.90;;;;;;5045172;28;20059;-71
2022/12/15 03:53:14;;;;;;;0.80;0.80;;;-2.40;99.90;;;;;;5055326;28;20051;-71
2022/12/15 03:55:40;;;;;;;;;;;-2.50;99.90;;;;;;5043629;28;20048;-71
2022/12/15 03:58:06;;;;;;;0.90;0.90;;;-2.50;99.90;;;;;;5044630;28;19924;-72
2022/12/15 04:00:32;;;;;;;0.90;0.90;;;-2.50;99.90;;;;;;5041810;28;20044;-72
2022/12/15 04:02:57;;;;;;;;;;;-2.50;99.90;;;;;;5043122;28;20371;-72
2022/12/15 04:05:26;;;;;;;0.80;0.80;;;-2.50;99.90;;;;;;5042211;28;19967;-72
2022/12/15 04:07:53;;;;;;;0.90;0.90;;;-2.50;99.90;;;;;;5041552;28;20052;-72
2022/12/15 04:10:19;;;;;;;0.80;0.80;;;-2.60;99.90;;;;;;5043242;28;20049;-71
2022/12/15 04:12:46;;;;;;;1.17;1.08;;;-2.60;99.90;;;;;;5047179;28;20150;-73
2022/12/15 04:15:11;;;;;;;0.80;0.80;;;-2.70;99.90;;;;;;5041669;28;20060;-71
2022/12/15 04:17:46;;;;;;;0.90;0.90;;;-2.70;99.90;;;;;;5042292;28;20658;-72
2022/12/15 04:20:12;;;;;;;0.80;0.80;;;-2.70;99.90;;;;;;5042445;28;21578;-72
2022/12/15 04:22:53;;;;;;;0.80;0.80;;;-2.80;99.90;;;;;;5041359;28;20404;-72
2022/12/15 05:31:54;;;;;;;0.95;0.95;;;-2.10;99.90;;;;;;5030849;28;20505;-72
2022/12/15 05:34:32;;;;;;;0.90;0.90;;;-1.90;99.90;;;;;;5053989;28;20051;-72
2022/12/15 05:37:03;;;;;;;0.90;0.90;;;-1.80;99.90;;;;;;5040438;28;20762;-72
2022/12/15 05:39:29;;;;;;;0.80;0.80;;;-1.80;99.90;;;;;;5043882;28;20064;-72
2022/12/15 05:41:56;;;;;;;0.80;0.80;;;-1.80;99.90;;;;;;5045122;28;20036;-72
2022/12/15 05:44:24;;;;;;;0.80;0.80;;;-1.90;99.90;;;;;;5043849;28;20449;-73
2022/12/15 05:46:49;;;;;;;0.90;0.90;;;-1.90;99.90;;;;;;5054446;28;20052;-72
2022/12/15 05:49:16;;;;;;;0.85;0.85;;;-2.00;99.90;;;;;;5042150;28;20067;-73
2022/12/15 05:51:44;;;;;;;0.80;0.80;;;-2.10;99.90;;;;;;5053142;28;20053;-72
2022/12/15 05:54:14;;;;;;;0.90;0.90;;;-2.10;99.90;;;;;;5041489;28;20785;-70
2022/12/15 05:56:40;;;;;;;0.63;0.63;;;-2.10;99.90;;;;;;5055370;28;20052;-71
2022/12/15 05:59:06;;;;;;;2.15;1.95;;;-2.10;99.90;;;;;;5025577;28;20769;-71
2022/12/15 06:01:32;;;;;;;0.70;0.70;;;-2.10;99.90;;;;;;5022771;28;20152;-73
2022/12/15 06:03:58;;;;;;;0.70;0.70;;;-2.10;99.90;;;;;;5021136;28;20059;-72
2022/12/15 06:06:25;;;;;;;0.70;0.70;;;-2.10;99.90;;;;;;5042643;28;20131;-71
2022/12/15 06:08:51;;;;;;;0.90;0.90;;;-2.10;99.90;;;;;;5044044;28;20056;-72
2022/12/15 06:11:21;;;;;;;0.85;0.85;;;-2.10;99.90;;;;;;5048859;28;20051;-72
2022/12/15 06:13:47;;;;;;;0.88;0.88;;;-1.90;99.90;;;;;;5029849;28;20040;-72
2022/12/15 06:16:15;;;;;;;0.80;0.80;;;-2.00;99.90;;;;;;5027737;28;20058;-72
2022/12/15 06:18:43;;;;;;;0.85;0.85;;;-2.20;99.90;;;;;;5042464;28;20103;-72
2022/12/15 06:21:18;;;;;;;0.70;0.70;;;-2.00;99.90;;;;;;5049554;28;20044;-72
2022/12/15 06:23:44;;;;;;;0.75;0.75;;;-2.00;99.90;;;;;;5045045;28;20120;-72
2022/12/15 06:26:19;;;;;;;0.80;0.80;;;-2.00;99.90;;;;;;5044038;28;20452;-72
2022/12/15 06:28:46;;;;;;;0.82;0.82;;;-1.90;99.90;;;;;;5050220;28;20029;-72
2022/12/15 06:31:15;;;;;;;0.88;0.88;;;-1.90;99.90;;;;;;5048207;28;20607;-71
2022/12/15 06:33:40;;;;;;;1.23;1.23;;;-1.80;99.90;;;;;;5045900;28;20032;-72
2022/12/15 06:36:13;;;;;;;0.70;0.70;;;-1.80;99.90;;;;;;5051510;28;20063;-71
2022/12/15 06:38:42;;;;;;;1.45;1.38;;;-1.80;99.90;;;;;;5048770;28;20448;-72
2022/12/15 06:41:14;;;;;;;1.70;1.45;;;-1.80;99.90;;;;;;5047461;28;20044;-72
2022/12/15 06:43:51;;;;;;;0.70;0.70;;;-1.80;99.90;;;;;;5042779;28;20044;-72
2022/12/15 06:46:17;;;;;;;1.10;1.10;;;-1.90;99.90;;;;;;5047419;28;20055;-72
2022/12/15 06:48:52;;;;;;;0.88;0.88;;;-1.80;99.90;;;;;;5051329;28;20101;-72
2022/12/15 06:51:18;;;;;;;0.90;0.90;;;-1.70;99.90;;;;;;5052035;28;20441;-72
2022/12/15 06:53:54;;;;;;;0.85;0.85;;;-1.80;99.90;;;;;;5064272;28;20076;-73
2022/12/15 06:56:28;;;;;;;0.60;0.60;;;-1.40;99.90;;;;;;5058821;28;20075;-73
2022/12/15 06:58:57;;;;;;;0.90;0.90;;;-1.70;99.90;;;;;;5062011;28;20087;-71
2022/12/15 07:01:23;;;;;;;0.90;0.90;;;-1.60;99.90;;;;;;5066647;28;20145;-73
2022/12/15 07:03:50;;;;;;;0.60;0.60;;;-1.60;99.90;;;;;;5055901;28;20123;-73
2022/12/15 07:06:17;;;;;;;0.70;0.70;;;-1.60;99.90;;;;;;5045045;28;20041;-74
2022/12/15 07:08:51;;;;;;;0.80;0.80;;;-1.70;99.90;;;;;;5060266;28;20084;-73
2022/12/15 07:11:18;;;;;;;0.80;0.80;;;-1.80;99.90;;;;;;5064438;28;20071;-73
2022/12/15 07:13:47;;;;;;;1.00;1.00;;;-1.80;99.90;;;;;;5059524;28;20044;-73
2022/12/15 07:16:12;;;;;;;0.80;0.80;;;-1.80;99.90;;;;;;5063688;28;20405;-71
2022/12/15 07:18:39;;;;;;;0.75;0.75;;;-1.70;99.90;;;;;;5060185;28;20107;-72
2022/12/15 07:21:08;;;;;;;0.60;0.60;;;-1.60;99.90;;;;;;5062795;28;20094;-73
2022/12/15 07:23:35;;;;;;;0.80;0.80;;;-1.50;99.90;;;;;;5066436;28;20386;-72
2022/12/15 07:26:06;;;;;;;0.80;0.80;;;-1.50;99.90;;;;;;5040588;28;20508;-73
2022/12/15 07:28:38;;;;;;;0.90;0.90;;;-1.50;99.90;;;;;;5064250;28;20121;-72
2022/12/15 07:31:12;;;;;;;0.73;0.73;;;-1.50;99.90;;;;;;5060837;28;20250;-73
2022/12/15 07:33:41;;;;;;;0.80;0.80;;;-1.50;99.90;;;;;;5062184;28;20374;-73
2022/12/15 07:36:07;;;;;;;1.90;1.80;;;-1.40;99.90;;;;;;5076392;28;20691;-73
2022/12/15 07:38:33;;;;;;;;;;;-1.40;99.90;;;;;;5066661;28;20051;-73
2022/12/15 07:41:03;;;;;;;0.70;0.70;;;-1.40;99.90;;;;;;5060473;28;20286;-73
2022/12/15 07:43:29;;;;;;;0.70;0.70;;;-1.40;99.90;;;;;;5066153;28;20122;-72
2022/12/15 07:45:55;;;;;;;3.88;3.63;;;-1.30;99.90;;;;;;5069931;28;20047;-72
2022/12/15 07:48:22;;;;;;;0.80;0.80;;;-1.10;99.90;;;;;;5063575;28;20042;-72
2022/12/15 07:50:56;;;;;;;1.73;1.60;;;-1.10;99.90;;;;;;5057442;28;20044;-72
2022/12/15 07:53:24;;;;;;;0.80;0.80;;;-1.10;99.90;;;;;;5044340;28;20425;-72
2022/12/15 07:55:54;;;;;;;0.95;0.95;;;-1.20;99.90;;;;;;5065996;28;20087;-73
2022/12/15 07:58:20;;;;;;;0.70;0.70;;;-1.20;99.90;;;;;;5061580;28;20132;-73
2022/12/15 08:00:46;;;;;;;1.30;1.17;;;-1.10;99.90;;;;;;5060341;28;20079;-72
2022/12/15 08:03:11;;;;;;;0.70;0.70;;;-1.10;99.90;;;;;;5059471;28;20450;-72
2022/12/15 08:05:39;;;;;;;0.80;0.80;;;-1.20;99.90;;;;;;5059259;28;20055;-73
2022/12/15 08:08:04;;;;;;;0.95;0.95;;;-1.20;99.90;;;;;;5060432;28;20051;-72
2022/12/15 08:10:30;;;;;;;0.50;0.50;;;-1.20;99.90;;;;;;5051684;28;20049;-72
2022/12/15 08:12:56;;;;;;;0.80;0.80;;;-1.20;99.90;;;;;;5059061;28;21785;-73
2022/12/15 08:15:22;;;;;;;0.80;0.80;;;-1.10;99.90;;;;;;5058877;28;20044;-72
2022/12/15 08:17:47;;;;;;;6.13;5.60;;;-1.10;99.90;;;;;;5069731;28;20125;-73
2022/12/15 08:20:14;;;;;;;0.90;0.90;;;-1.10;99.90;;;;;;5065229;28;20071;-73
2022/12/15 08:22:46;;;;;;;0.75;0.75;;;-1.00;99.90;;;;;;5087952;28;20802;-72
2022/12/15 08:25:11;;;;;;;0.90;0.90;;;-0.90;99.90;;;;;;5066687;28;20064;-73
2022/12/15 08:27:37;;;;;;;0.70;0.70;;;-0.90;99.90;;;;;;5071087;28;20478;-72
2022/12/15 08:30:03;;;;;;;0.80;0.80;;;-0.90;99.90;;;;;;5059691;28;20049;-72
2022/12/15 08:32:29;;;;;;;0.70;0.70;;;-0.90;99.90;;;;;;5039018;28;20097;-72
2022/12/15 08:34:55;;;;;;;0.70;0.70;;;-0.90;99.90;;;;;;5058483;28;20032;-72
2022/12/15 08:37:20;;;;;;;0.70;0.70;;;-0.80;99.90;;;;;;5059525;28;20071;-72
2022/12/15 08:39:46;;;;;;;1.00;1.00;;;-0.90;99.90;;;;;;5063139;28;20098;-72
2022/12/15 08:42:12;;;;;;;2.33;2.22;;;-0.90;99.90;;;;;;5038413;28;20385;-72
2022/12/15 08:44:38;;;;;;;0.77;0.77;;;-0.90;99.90;;;;;;5061699;28;20044;-73
2022/12/15 08:47:03;;;;;;;0.93;0.93;;;-1.00;99.90;;;;;;5056297;28;20051;-73
2022/12/15 08:49:29;;;;;;;;;;;-0.90;99.90;;;;;;5055732;28;20048;-73
2022/12/15 08:51:55;;;;;;;0.70;0.70;;;-0.90;99.90;;;;;;5057666;28;19916;-73
2022/12/15 08:54:21;;;;;;;0.70;0.70;;;-0.80;99.90;;;;;;5069057;28;20083;-73
2022/12/15 08:56:47;;;;;;;0.75;0.75;;;-0.70;99.90;;;;;;5055690;28;20037;-73
2022/12/15 08:59:13;;;;;;;0.80;0.80;;;-0.50;99.90;;;;;;5060626;28;20040;-73
2022/12/15 09:01:42;;;;;;;2.05;1.95;;;-0.60;99.90;;;;;;5042570;28;20048;-73
2022/12/15 09:04:09;;;;;;;0.90;0.90;;;-0.50;99.90;;;;;;5058490;28;20044;-74
2022/12/15 09:06:35;;;;;;;0.90;0.90;;;-0.50;99.90;;;;;;5070954;28;20040;-73
2022/12/15 09:09:06;;;;;;;0.70;0.70;;;-0.50;99.90;;;;;;5054334;28;20048;-73
2022/12/15 09:11:32;;;;;;;1.95;1.85;;;-0.50;99.90;;;;;;5058335;28;20108;-73
2022/12/15 09:13:57;;;;;;;;;;;-0.50;99.90;;;;;;5062234;28;20044;-74
2022/12/15 09:16:23;;;;;;;3.28;2.97;;;-0.50;99.90;;;;;;5072385;28;19921;-74
2022/12/15 09:18:51;;;;;;;;;;;-0.50;99.90;;;;;;5043814;28;20041;-73
2022/12/15 09:21:21;;;;;;;0.77;0.77;;;-0.50;99.90;;;;;;5058469;28;19967;-73
2022/12/15 09:23:52;;;;;;;0.80;0.80;;;-0.40;99.90;;;;;;5049175;28;20101;-73
2022/12/15 09:26:21;;;;;;;1.02;1.02;;;-0.40;99.90;;;;;;5066060;28;20063;-73
2022/12/15 09:28:49;;;;;;;0.70;0.70;;;-0.30;99.90;;;;;;5055750;28;20044;-73
2022/12/15 09:31:27;;;;;;;0.70;0.70;;;-0.20;99.90;;;;;;5060865;28;20036;-73
2022/12/15 09:33:55;;;;;;;0.70;0.70;;;-0.20;99.90;;;;;;5053683;28;20059;-73
2022/12/15 09:36:24;;;;;;;0.80;0.80;;;-0.10;99.90;;;;;;5057098;28;20086;-73
2022/12/15 09:38:51;;;;;;;0.70;0.70;;;-0.10;99.90;;;;;;5057019;28;20041;-72
2022/12/15 09:41:21;;;;;;;0.77;0.77;;;0.00;99.90;;;;;;5058557;28;20119;-74
2022/12/15 09:43:52;;;;;;;3.55;3.35;;;0.10;99.90;;;;;;5036091;28;20052;-74
2022/12/15 09:47:10;;;;;;;0.63;0.63;;;0.10;99.90;;;;;;5059708;28;20041;-73
2022/12/15 09:49:49;;;;;;;1.35;1.35;;;0.10;99.90;;;;;;5055332;28;20061;-73
2022/12/15 09:52:29;;;;;;;0.77;0.77;;;0.20;99.90;;;;;;5055640;28;20047;-73
2022/12/15 09:55:00;;;;;;;0.80;0.80;;;0.30;99.90;;;;;;5052389;28;20051;-75
2022/12/15 09:57:47;;;;;;;0.60;0.60;;;0.40;99.90;;;;;;5060076;28;20047;-75
2022/12/15 10:00:14;;;;;;;;;;;0.40;99.90;;;;;;5079597;28;20485;-76
2022/12/15 10:03:08;;;;;;;0.70;0.70;;;0.50;99.90;;;;;;5057611;28;19963;-74
2022/12/15 10:06:12;;;;;;;0.90;0.90;;;0.50;99.90;;;;;;5055073;28;20148;-76
2022/12/15 10:08:48;;;;;;;0.88;0.88;;;0.50;99.90;;;;;;5053955;28;20052;-75
2022/12/15 10:11:50;;;;;;;0.80;0.80;;;0.50;99.90;;;;;;5053741;28;20493;-75
2022/12/15 10:14:36;;;;;;;0.70;0.70;;;0.50;99.90;;;;;;5057122;28;20041;-77
2022/12/15 10:17:20;;;;;;;0.77;0.77;;;0.50;99.90;;;;;;5057496;28;20037;-75
2022/12/15 10:19:55;;;;;;;0.60;0.60;;;0.60;99.90;;;;;;5069237;28;20672;-74
2022/12/15 10:22:33;;;;;;;0.60;0.60;;;0.60;99.90;;;;;;5058868;28;20883;-76
2022/12/15 10:25:13;;;;;;;0.70;0.70;;;0.70;99.90;;;;;;5055184;28;20490;-76
2022/12/15 10:27:48;;;;;;;0.73;0.73;;;0.70;99.90;;;;;;5061665;28;20047;-75
2022/12/15 10:30:23;;;;;;;0.73;0.73;;;0.80;99.90;;;;;;5050787;28;20071;-75
2022/12/15 10:32:55;;;;;;;0.70;0.70;;;0.90;99.90;;;;;;5051503;28;20041;-76
2022/12/15 10:35:34;;;;;;;0.80;0.80;;;1.20;99.90;;;;;;5054844;28;20478;-77
2022/12/15 10:38:04;;;;;;;0.90;0.90;;;1.00;99.90;;;;;;5063729;28;20040;-75
2022/12/15 10:40:50;;;;;;;0.60;0.60;;;1.00;99.90;;;;;;5049464;28;20446;-75
2022/12/15 10:43:26;;;;;;;1.35;1.35;;;1.40;99.90;;;;;;5067412;28;20056;-76
2022/12/15 10:46:30;;;;;;;0.93;0.93;;;1.20;99.90;;;;;;5047791;28;20095;-74
2022/12/15 10:49:05;;;;;;;0.80;0.80;;;1.20;99.90;;;;;;5072735;28;20390;-75
2022/12/15 10:51:42;;;;;;;0.85;0.85;;;1.30;99.90;;;;;;5077661;28;20082;-76
2022/12/15 10:54:12;;;;;;;0.80;0.80;;;1.30;99.90;;;;;;5052917;28;20037;-76
2022/12/15 10:56:53;;;;;;;0.90;0.90;;;1.40;99.90;;;;;;5048149;28;20036;-76
2022/12/15 10:59:21;;;;;;;0.70;0.70;;;1.40;99.90;;;;;;5059192;28;20036;-76
2022/12/15 11:01:48;;;;;;;0.70;0.70;;;1.40;99.90;;;;;;5043271;28;20107;-76
2022/12/15 11:04:31;;;;;;;0.73;0.73;;;1.50;99.90;;;;;;5055278;28;20505;-76
2022/12/15 11:07:13;;;;;;;0.70;0.70;;;1.50;99.90;;;;;;5055920;28;20136;-75
2022/12/15 11:09:39;;;;;;;0.70;0.70;;;1.60;99.90;;;;;;5061134;28;20088;-75
2022/12/15 11:15:21;;;;;;;0.70;0.70;;;1.70;99.90;;;;;;5047012;28;20090;-76
2022/12/15 11:18:14;;;;;;;0.70;0.70;;;1.70;99.90;;;;;;5052721;28;20044;-77
2022/12/15 11:20:53;;;;;;;0.70;0.70;;;1.80;99.90;;;;;;5064030;28;20037;-76
2022/12/15 11:23:29;;;;;;;0.70;0.70;;;1.80;99.90;;;;;;5062670;28;20040;-75
2022/12/15 11:26:00;;;;;;;0.80;0.80;;;1.90;99.90;;;;;;5053902;28;20076;-76
2022/12/15 11:28:43;;;;;;;0.70;0.70;;;1.90;99.90;;;;;;5059743;28;20115;-76
2022/12/15 11:31:33;;;;;;;0.70;0.70;;;1.90;99.90;;;;;;5055733;28;20057;-76
2022/12/15 11:34:09;;;;;;;0.85;0.82;;;2.00;99.90;;;;;;5059917;28;20509;-76
2022/12/15 11:36:57;;;;;;;0.65;0.65;;;2.00;99.90;;;;;;5050257;28;20044;-75
2022/12/15 11:40:01;;;;;;;1.15;1.15;;;2.10;99.90;;;;;;5038142;28;20131;-77
2022/12/15 11:42:52;;;;;;;0.80;0.80;;;2.20;99.90;;;;;;5053799;28;20068;-76
2022/12/15 11:45:46;;;;;;;0.70;0.70;;;2.20;99.90;;;;;;5057521;28;20054;-77
2022/12/15 11:48:18;;;;;;;0.70;0.70;;;2.20;99.90;;;;;;5062234;28;20566;-77
2022/12/15 11:51:16;;;;;;;0.80;0.80;;;2.20;99.90;;;;;;5059877;28;20501;-76
2022/12/15 11:53:54;;;;;;;;;;;2.20;99.90;;;;;;5065331;28;20048;-76
2022/12/15 11:56:37;;;;;;;1.20;1.20;;;2.20;99.90;;;;;;5061005;28;19927;-73
2022/12/15 11:59:21;;;;;;;0.63;0.63;;;2.30;99.90;;;;;;5056655;28;20044;-76
2022/12/15 12:02:21;;;;;;;0.68;0.68;;;2.30;99.90;;;;;;5068420;28;20048;-76
2022/12/15 12:05:15;;;;;;;0.70;0.70;;;2.30;99.90;;;;;;5066599;28;20051;-76
2022/12/15 12:08:26;;;;;;;0.95;0.90;;;2.40;99.90;;;;;;5059615;28;20140;-76
2022/12/15 12:11:13;;;;;;;0.70;0.70;;;2.40;99.90;;;;;;5061375;28;20057;-76
2022/12/15 12:14:14;;;;;;;0.80;0.80;;;2.60;99.90;;;;;;5065982;28;20043;-76
2022/12/15 12:17:06;;;;;;;0.70;0.70;;;2.50;99.90;;;;;;5060638;28;20096;-76
2022/12/15 12:19:50;;;;;;;0.70;0.70;;;2.50;99.90;;;;;;5052230;28;20049;-76
2022/12/15 12:22:25;;;;;;;0.60;0.60;;;2.50;99.90;;;;;;5056745;28;20088;-76
2022/12/15 12:25:00;;;;;;;1.08;1.08;;;2.50;99.90;;;;;;5058983;28;20128;-76
2022/12/15 12:27:36;;;;;;;0.70;0.70;;;2.60;99.90;;;;;;5054654;28;20052;-76
2022/12/15 12:30:15;;;;;;;0.68;0.68;;;2.50;99.90;;;;;;5056065;28;20542;-76
2022/12/15 12:33:18;;;;;;;0.60;0.60;;;2.60;99.90;;;;;;5050989;28;20078;-76
2022/12/15 12:35:57;;;;;;;0.68;0.68;;;2.60;99.90;;;;;;5060130;28;20170;-75
2022/12/15 12:38:36;;;;;;;0.50;0.50;;;2.60;99.90;;;;;;5051663;28;20039;-76
2022/12/15 12:41:13;;;;;;;0.90;0.90;;;2.80;99.90;;;;;;5051753;28;20159;-76
2022/12/15 12:43:49;;;;;;;1.00;1.00;;;2.70;99.90;;;;;;5065924;28;20056;-76
2022/12/15 12:46:27;;;;;;;1.75;1.65;;;2.70;99.90;;;;;;5055470;28;20075;-76
2022/12/15 12:49:06;;;;;;;0.73;0.73;;;2.80;99.90;;;;;;5045158;28;20434;-76
2022/12/15 12:51:35;;;;;;;1.67;1.58;;;2.80;99.90;;;;;;5059312;28;20128;-76
2022/12/15 12:54:01;;;;;;;0.70;0.70;;;2.90;99.90;;;;;;5046108;28;20044;-77
2022/12/15 12:56:43;;;;;;;0.75;0.75;;;2.80;99.90;;;;;;5049308;28;21876;-76
2022/12/15 12:59:27;;;;;;;0.60;0.60;;;2.90;99.90;;;;;;5044567;28;20305;-76
2022/12/15 13:02:20;;;;;;;0.50;0.50;;;2.80;99.90;;;;;;5046309;28;20080;-76
2022/12/15 13:04:59;;;;;;;0.60;0.60;;;2.80;99.90;;;;;;5050578;28;20052;-76
2022/12/15 13:07:33;;;;;;;0.60;0.60;;;2.80;99.90;;;;;;5061169;28;20379;-76
2022/12/15 13:10:11;;;;;;;0.63;0.63;;;2.90;99.90;;;;;;5031665;28;20139;-76
2022/12/15 13:12:54;;;;;;;0.77;0.77;;;2.90;99.90;;;;;;5043719;28;20405;-76
2022/12/15 13:15:26;;;;;;;0.70;0.70;;;2.90;99.90;;;;;;5046668;28;20083;-77
2022/12/15 13:17:57;;;;;;;0.63;0.63;;;2.90;99.90;;;;;;5045084;28;20122;-77
2022/12/15 13:20:30;;;;;;;0.77;0.77;;;2.90;99.90;;;;;;5045510;28;20408;-76
2022/12/15 13:23:33;;;;;;;0.63;0.63;;;2.90;99.90;;;;;;5060330;28;20056;-77
2022/12/15 13:25:58;;;;;;;0.80;0.80;;;2.80;99.90;;;;;;5050138;28;20049;-77
2022/12/15 13:28:42;;;;;;;0.80;0.80;;;2.80;99.90;;;;;;5047762;28;20048;-77
2022/12/15 13:31:17;;;;;;;2.58;1.80;;;2.90;99.90;;;;;;5064308;28;20055;-77
2022/12/15 13:33:51;;;;;;;0.77;0.77;;;2.80;99.90;;;;;;5049430;28;20125;-77
2022/12/15 13:36:39;;;;;;;0.70;0.70;;;3.00;99.90;;;;;;5066203;28;20581;-76
2022/12/15 13:39:43;;;;;;;0.60;0.60;;;2.70;99.90;;;;;;5033778;28;20041;-78
2022/12/15 13:42:09;;;;;;;0.60;0.60;;;2.70;99.90;;;;;;5063132;28;20048;-77
2022/12/15 13:44:38;;;;;;;0.60;0.60;;;2.60;99.90;;;;;;5050702;28;20032;-77
2022/12/15 13:47:42;;;;;;;0.60;0.60;;;2.60;99.90;;;;;;5050476;28;20043;-77
2022/12/15 13:50:28;;;;;;;2.42;2.00;;;2.50;99.90;;;;;;5050474;28;20068;-77
2022/12/15 13:52:56;;;;;;;0.70;0.70;;;2.50;99.90;;;;;;5052044;28;20029;-77
2022/12/15 13:55:37;;;;;;;0.70;0.70;;;2.50;99.90;;;;;;5067075;28;20119;-77
2022/12/15 13:58:14;;;;;;;0.75;0.75;;;2.50;99.90;;;;;;5053439;28;20413;-78
2022/12/15 14:00:54;;;;;;;0.70;0.70;;;2.50;99.90;;;;;;5052696;28;20640;-77
2022/12/15 14:03:23;;;;;;;0.75;0.75;;;2.60;99.90;;;;;;5049820;28;20477;-77
2022/12/15 14:05:58;;;;;;;0.70;0.70;;;2.70;99.90;;;;;;5037176;28;20088;-77
2022/12/15 14:08:28;;;;;;;0.60;0.60;;;2.70;99.90;;;;;;5063452;28;20051;-77
2022/12/15 14:10:58;;;;;;;1.35;1.35;;;2.80;99.90;;;;;;5052695;28;20049;-78
2022/12/15 14:13:46;;;;;;;0.70;0.70;;;2.80;99.90;;;;;;5048783;28;20045;-77
2022/12/15 14:16:20;;;;;;;0.82;0.82;;;2.80;99.90;;;;;;5053305;28;20096;-77
2022/12/15 14:19:16;;;;;;;0.70;0.70;;;2.80;99.90;;;;;;5050120;28;20174;-78
2022/12/15 14:21:53;;;;;;;0.60;0.60;;;2.70;99.90;;;;;;5035633;28;20053;-78
2022/12/15 14:24:29;;;;;;;0.98;0.98;;;2.70;99.90;;;;;;5064244;28;20036;-78
2022/12/15 14:26:55;;;;;;;0.98;0.98;;;2.70;99.90;;;;;;5050831;28;20045;-78
2022/12/15 14:29:21;;;;;;;1.42;1.33;;;2.70;99.90;;;;;;5051994;28;22250;-78
2022/12/15 14:31:58;;;;;;;0.60;0.60;;;2.70;99.90;;;;;;5058700;28;20041;-78
2022/12/15 14:34:38;;;;;;;0.70;0.70;;;2.70;99.90;;;;;;5052821;28;20493;-79
2022/12/15 14:37:09;;;;;;;1.00;1.00;;;2.70;99.90;;;;;;5051274;28;20059;-79
2022/12/15 14:39:44;;;;;;;0.60;0.60;;;2.70;99.90;;;;;;5049557;28;20482;-78
2022/12/15 14:42:20;;;;;;;8.60;5.82;;;2.70;99.90;;;;;;5048769;28;20514;-77
2022/12/15 14:44:46;;;;;;;0.70;0.70;;;2.70;99.90;;;;;;5048595;28;20482;-78
2022/12/15 14:47:21;;;;;;;;;;;2.60;99.90;;;;;;5051007;28;20110;-78
2022/12/15 14:49:50;;;;;;;0.80;0.80;;;2.60;99.90;;;;;;5050722;28;19932;-78
2022/12/15 14:52:28;;;;;;;1.10;1.10;;;2.50;99.90;;;;;;5055270;28;20041;-79
2022/12/15 14:54:56;;;;;;;1.08;1.08;;;2.50;99.90;;;;;;5037616;28;20095;-79
2022/12/15 14:57:42;;;;;;;0.60;0.60;;;2.40;99.90;;;;;;5068631;28;20041;-78
2022/12/15 15:00:31;;;;;;;0.70;0.70;;;2.40;99.90;;;;;;5045063;28;20048;-78
2022/12/15 15:03:18;;;;;;;2.15;2.05;;;2.40;99.90;;;;;;5054451;28;20072;-78
2022/12/15 15:06:11;;;;;;;1.90;1.83;;;2.40;99.90;;;;;;5046087;28;20063;-78
2022/12/15 15:08:50;;;;;;;0.68;0.68;;;2.40;99.90;;;;;;5044618;28;20467;-78
2022/12/15 15:11:46;;;;;;;0.63;0.63;;;2.40;99.90;;;;;;5049781;28;20091;-78
2022/12/15 15:14:34;;;;;;;0.60;0.60;;;2.40;99.90;;;;;;5036245;28;20086;-78
2022/12/15 15:17:42;;;;;;;0.60;0.60;;;2.50;99.90;;;;;;5041047;28;20045;-79
2022/12/15 15:20:34;;;;;;;0.82;0.82;;;2.40;99.90;;;;;;5034182;28;20182;-79
2022/12/15 15:23:15;;;;;;;0.80;0.80;;;2.30;99.90;;;;;;5044066;28;20049;-78
2022/12/15 15:25:48;;;;;;;0.70;0.70;;;2.20;99.90;;;;;;5046065;28;20068;-79
2022/12/15 15:28:18;;;;;;;1.13;1.02;;;2.10;99.90;;;;;;5043023;28;20074;-79
2022/12/15 15:31:23;;;;;;;0.52;0.52;;;2.10;99.90;;;;;;5056014;28;20053;-79
2022/12/15 15:33:59;;;;;;;2.95;2.75;;;2.00;99.90;;;;;;5045602;28;20045;-80
2022/12/15 15:36:33;;;;;;;0.70;0.70;;;1.90;99.90;;;;;;5014985;28;20045;-80
2022/12/15 15:39:02;;;;;;;0.70;0.70;;;1.90;99.90;;;;;;5053861;28;20064;-80
2022/12/15 15:41:30;;;;;;;0.77;0.77;;;1.90;99.90;;;;;;5063928;28;20040;-79
2022/12/15 15:44:00;;;;;;;0.77;0.77;;;1.90;99.90;;;;;;5065732;28;20074;-79
2022/12/15 15:46:31;;;;;;;0.63;0.63;;;1.90;99.90;;;;;;5063033;28;20119;-79
2022/12/15 15:49:11;;;;;;;0.60;0.60;;;1.80;99.90;;;;;;5055300;28;20039;-78
2022/12/15 15:51:38;;;;;;;0.55;0.55;;;1.70;99.90;;;;;;5041728;28;20059;-79
2022/12/15 15:54:17;;;;;;;0.70;0.70;;;1.50;99.90;;;;;;5067837;28;20036;-79